Time;durP1;ratioP1;P1;durP2;ratioP2;P2;SDS_P1;SDS_P2;PMS_P1;PMS_P2;Temp;Humidity;BMP_temperature;BMP_pressure;BME280_temperature;BME280_humidity;BME280_pressure;Samples;Min_cycle;Max_cycle;Signal;HPM_P1;HPM_P2
2022/05/10 00:01:32;;;;;;;2.97;1.90;;;18.60;59.90;;;;;;5009331;28;20197;-58
2022/05/10 00:04:04;;;;;;;3.17;1.90;;;18.60;59.90;;;;;;5007831;28;20246;-58
2022/05/10 00:06:39;;;;;;;4.63;2.10;;;18.60;59.90;;;;;;5006257;28;20255;-58
2022/05/10 00:09:11;;;;;;;3.35;1.88;;;18.60;59.90;;;;;;5008146;28;20294;-58
2022/05/10 00:11:41;;;;;;;3.33;2.20;;;18.60;59.90;;;;;;5007705;28;20204;-58
2022/05/10 00:14:14;;;;;;;3.90;2.53;;;18.60;59.80;;;;;;5007913;28;20219;-58
2022/05/10 00:16:46;;;;;;;5.03;2.30;;;18.60;60.40;;;;;;5004672;28;20659;-59
2022/05/10 00:19:18;;;;;;;3.38;1.88;;;18.60;60.60;;;;;;5007481;28;20314;-58
2022/05/10 00:21:49;;;;;;;3.13;2.15;;;18.60;60.50;;;;;;5007796;28;20522;-60
2022/05/10 00:24:20;;;;;;;2.40;2.00;;;18.60;60.40;;;;;;5008214;28;21110;-59
2022/05/10 00:26:50;;;;;;;3.38;2.17;;;18.60;60.40;;;;;;5008038;28;20232;-59
2022/05/10 00:29:23;;;;;;;2.65;2.08;;;18.60;60.30;;;;;;5008144;28;20279;-59
2022/05/10 00:31:53;;;;;;;2.60;1.85;;;18.60;60.20;;;;;;5006837;28;20200;-58
2022/05/10 00:34:24;;;;;;;3.28;2.20;;;18.60;60.20;;;;;;5007298;28;20286;-59
2022/05/10 00:36:54;;;;;;;1.85;1.63;;;18.60;60.10;;;;;;5007459;28;20181;-59
2022/05/10 00:39:25;;;;;;;2.30;1.92;;;18.60;60.10;;;;;;5008177;28;20248;-59
2022/05/10 00:42:02;;;;;;;2.80;1.92;;;18.60;60.10;;;;;;5008043;28;20193;-60
2022/05/10 00:44:39;;;;;;;2.67;2.05;;;18.70;60.10;;;;;;5007472;28;20196;-59
2022/05/10 00:47:17;;;;;;;3.20;1.70;;;18.60;60.00;;;;;;5006896;28;20242;-58
2022/05/10 00:49:53;;;;;;;2.20;1.90;;;18.70;60.00;;;;;;5007538;28;20267;-59
2022/05/10 00:52:32;;;;;;;2.55;1.83;;;18.60;60.00;;;;;;5007816;28;20224;-59
2022/05/10 00:55:07;;;;;;;2.83;1.77;;;18.60;60.00;;;;;;5008261;28;20314;-59
2022/05/10 00:57:43;;;;;;;2.70;1.98;;;18.70;60.10;;;;;;5007893;28;20201;-60
2022/05/10 01:00:17;;;;;;;2.25;1.65;;;18.70;60.10;;;;;;5012060;28;20255;-59
2022/05/10 01:02:58;;;;;;;2.25;1.65;;;18.70;60.00;;;;;;5011694;28;20196;-58
2022/05/10 01:05:35;;;;;;;2.47;1.70;;;18.60;60.00;;;;;;5010743;28;20221;-58
2022/05/10 01:08:14;;;;;;;2.17;1.83;;;18.70;60.10;;;;;;5011442;28;20197;-58
2022/05/10 01:10:50;;;;;;;3.40;2.30;;;18.70;60.10;;;;;;5010997;28;20262;-58
2022/05/10 01:13:27;;;;;;;3.83;2.70;;;18.70;60.00;;;;;;5011319;28;20228;-58
2022/05/10 01:16:08;;;;;;;3.47;2.70;;;18.70;60.00;;;;;;5010781;28;20216;-58
2022/05/10 01:18:40;;;;;;;3.55;2.67;;;18.70;59.90;;;;;;5009699;28;20314;-58
2022/05/10 01:21:26;;;;;;;5.40;3.10;;;18.70;59.90;;;;;;5011825;28;20201;-58
2022/05/10 01:24:23;;;;;;;4.03;3.20;;;18.80;59.90;;;;;;5011621;28;20649;-58
2022/05/10 01:27:03;;;;;;;4.85;3.47;;;18.70;59.90;;;;;;5011089;28;20211;-58
2022/05/10 01:29:40;;;;;;;4.50;3.22;;;18.70;59.80;;;;;;5008839;28;20770;-58
2022/05/10 01:35:18;;;;;;;4.60;3.20;;;18.70;59.70;;;;;;5011585;28;20745;-58
2022/05/10 01:37:53;;;;;;;4.03;3.03;;;18.70;59.60;;;;;;5010354;28;20220;-59
2022/05/10 01:40:32;;;;;;;5.43;3.60;;;18.70;59.60;;;;;;5010865;28;20230;-58
2022/05/10 01:43:09;;;;;;;5.78;4.15;;;18.70;59.60;;;;;;5009905;28;20660;-59
2022/05/10 01:45:48;;;;;;;5.97;4.22;;;18.70;59.60;;;;;;5011019;28;20619;-59
2022/05/10 01:48:21;;;;;;;4.78;3.83;;;18.80;59.60;;;;;;5010697;28;20258;-58
2022/05/10 01:50:57;;;;;;;6.97;4.10;;;18.80;59.60;;;;;;5010887;28;20189;-58
2022/05/10 01:53:33;;;;;;;4.78;3.83;;;18.70;59.40;;;;;;5005793;28;20224;-58
2022/05/10 01:56:06;;;;;;;6.30;4.10;;;18.80;59.50;;;;;;5009983;28;20275;-59
2022/05/10 01:58:38;;;;;;;4.72;4.20;;;18.70;59.40;;;;;;5009955;28;20266;-58
2022/05/10 02:01:14;;;;;;;4.85;4.32;;;18.80;59.40;;;;;;5010586;28;20201;-58
2022/05/10 02:03:48;;;;;;;7.05;4.80;;;18.80;59.40;;;;;;5008358;28;20249;-58
2022/05/10 02:06:28;;;;;;;5.85;4.80;;;18.80;59.30;;;;;;5009958;28;20228;-58
2022/05/10 02:09:04;;;;;;;6.07;4.97;;;18.80;59.30;;;;;;5010792;28;20208;-58
2022/05/10 02:11:39;;;;;;;6.25;4.60;;;18.70;59.20;;;;;;5009927;28;20611;-58
2022/05/10 02:14:15;;;;;;;4.63;4.15;;;18.80;59.30;;;;;;5011023;28;20255;-58
2022/05/10 02:16:53;;;;;;;6.95;5.15;;;18.80;59.30;;;;;;5006143;28;20224;-58
2022/05/10 02:19:27;;;;;;;6.43;5.40;;;18.80;59.20;;;;;;5010667;28;20307;-58
2022/05/10 02:22:02;;;;;;;6.10;5.07;;;18.80;59.20;;;;;;5010086;28;20266;-58
2022/05/10 02:24:38;;;;;;;5.80;5.18;;;18.80;59.10;;;;;;5010077;28;20270;-58
2022/05/10 02:27:13;;;;;;;6.15;5.22;;;18.80;59.10;;;;;;5010300;28;20220;-58
2022/05/10 02:29:47;;;;;;;7.40;5.30;;;18.70;59.00;;;;;;5009800;28;20781;-58
2022/05/10 02:35:11;;;;;;;6.43;4.90;;;18.80;58.90;;;;;;5010056;28;20996;-58
2022/05/10 02:37:42;;;;;;;7.72;5.25;;;18.80;58.90;;;;;;5009676;28;20224;-59
2022/05/10 02:40:13;;;;;;;6.65;4.97;;;18.80;58.90;;;;;;5009616;28;20217;-58
2022/05/10 02:42:47;;;;;;;7.22;5.13;;;18.80;58.80;;;;;;5009891;28;20615;-58
2022/05/10 02:45:19;;;;;;;6.57;5.35;;;18.80;58.90;;;;;;5008492;28;20284;-58
2022/05/10 02:47:53;;;;;;;5.93;5.25;;;18.80;58.90;;;;;;5009397;28;20284;-58
2022/05/10 02:50:29;;;;;;;7.78;5.43;;;18.80;58.80;;;;;;5006633;28;20302;-58
2022/05/10 02:52:59;;;;;;;5.72;4.88;;;18.80;58.90;;;;;;5009296;28;20255;-58
2022/05/10 02:55:36;;;;;;;7.22;5.07;;;18.80;58.80;;;;;;5009028;28;20239;-58
2022/05/10 02:58:14;;;;;;;5.53;4.60;;;18.80;58.80;;;;;;5006727;28;20564;-59
2022/05/10 03:00:45;;;;;;;6.32;4.43;;;18.70;58.70;;;;;;5010686;28;20196;-58
2022/05/10 03:03:20;;;;;;;6.07;4.03;;;18.80;58.60;;;;;;5009440;28;20561;-58
2022/05/10 03:05:51;;;;;;;6.63;4.35;;;18.80;58.60;;;;;;5009788;28;20192;-59
2022/05/10 03:08:21;;;;;;;7.05;5.07;;;18.80;58.50;;;;;;5009316;28;20197;-58
2022/05/10 03:10:52;;;;;;;6.57;4.40;;;18.80;58.40;;;;;;5009315;28;20193;-58
2022/05/10 03:13:23;;;;;;;5.93;4.80;;;18.80;58.40;;;;;;5009709;28;20193;-59
2022/05/10 03:15:53;;;;;;;6.50;4.40;;;18.80;58.30;;;;;;5009430;28;20268;-58
2022/05/10 03:18:25;;;;;;;5.70;4.28;;;18.70;58.20;;;;;;5009289;28;20189;-58
2022/05/10 03:20:56;;;;;;;6.18;4.35;;;18.80;58.20;;;;;;5009636;28;20760;-58
2022/05/10 03:23:27;;;;;;;5.82;4.20;;;18.80;58.20;;;;;;5008927;28;20200;-58
2022/05/10 03:25:58;;;;;;;5.95;4.30;;;18.70;58.10;;;;;;5009113;28;20212;-58
2022/05/10 03:28:29;;;;;;;4.38;3.97;;;18.80;58.20;;;;;;5007897;28;20282;-58
2022/05/10 03:31:00;;;;;;;5.68;4.20;;;18.80;58.20;;;;;;5008776;28;20934;-58
2022/05/10 03:33:32;;;;;;;6.00;3.70;;;18.80;58.20;;;;;;5008672;28;20201;-58
2022/05/10 03:36:03;;;;;;;6.50;4.20;;;18.70;58.20;;;;;;5008233;28;20727;-58
2022/05/10 03:38:33;;;;;;;5.05;3.70;;;18.80;58.20;;;;;;5006281;28;20291;-58
2022/05/10 03:41:04;;;;;;;4.53;3.83;;;18.70;58.10;;;;;;5007817;28;20201;-58
2022/05/10 03:43:35;;;;;;;5.38;4.00;;;18.70;58.00;;;;;;5009179;28;20274;-58
2022/05/10 03:46:09;;;;;;;5.20;3.25;;;18.70;58.00;;;;;;5008969;28;20290;-58
2022/05/10 03:48:41;;;;;;;4.28;3.28;;;18.70;57.80;;;;;;5008510;28;20281;-58
2022/05/10 03:51:12;;;;;;;4.88;3.20;;;18.70;57.70;;;;;;5008398;28;20192;-59
2022/05/10 03:53:42;;;;;;;4.47;3.22;;;18.70;57.70;;;;;;5008761;28;20287;-58
2022/05/10 03:56:13;;;;;;;3.95;3.38;;;18.70;57.70;;;;;;5007911;28;20282;-58
2022/05/10 03:58:43;;;;;;;4.97;3.25;;;18.70;57.60;;;;;;5008287;28;20221;-58
2022/05/10 04:01:14;;;;;;;5.78;3.47;;;18.70;57.60;;;;;;5008621;28;20275;-58
2022/05/10 04:03:46;;;;;;;4.25;2.72;;;18.70;57.60;;;;;;5008294;28;20223;-58
2022/05/10 04:06:18;;;;;;;3.83;2.88;;;18.70;57.60;;;;;;5008565;28;20200;-59
2022/05/10 04:08:48;;;;;;;3.92;3.00;;;18.70;57.50;;;;;;5006821;28;20302;-59
2022/05/10 04:11:19;;;;;;;4.07;2.90;;;18.70;57.50;;;;;;5007998;28;20229;-58
2022/05/10 04:13:49;;;;;;;5.05;2.63;;;18.70;57.50;;;;;;5006188;28;20193;-58
2022/05/10 04:16:20;;;;;;;4.38;3.17;;;18.70;57.50;;;;;;5008117;28;20290;-58
2022/05/10 04:18:52;;;;;;;3.65;2.92;;;18.60;57.40;;;;;;5007398;28;20427;-58
2022/05/10 04:21:23;;;;;;;3.95;3.03;;;18.70;57.50;;;;;;5007949;28;20619;-58
2022/05/10 04:23:54;;;;;;;6.93;2.90;;;18.70;57.50;;;;;;5007898;28;20193;-58
2022/05/10 04:26:24;;;;;;;5.93;3.25;;;18.60;57.50;;;;;;5007590;28;20228;-58
2022/05/10 04:28:55;;;;;;;5.07;3.13;;;18.70;57.40;;;;;;5007849;28;20213;-58
2022/05/10 04:31:26;;;;;;;4.97;2.95;;;18.60;57.30;;;;;;5007334;28;20189;-58
2022/05/10 04:33:58;;;;;;;4.38;3.40;;;18.60;57.20;;;;;;5011643;28;20200;-58
2022/05/10 04:36:29;;;;;;;5.13;3.20;;;18.60;57.20;;;;;;5011115;28;20310;-58
2022/05/10 04:38:59;;;;;;;3.80;3.28;;;18.60;57.10;;;;;;5012486;28;20306;-58
2022/05/10 04:41:30;;;;;;;5.72;3.10;;;18.60;57.10;;;;;;5011797;28;20262;-58
2022/05/10 04:44:01;;;;;;;5.35;3.33;;;18.60;57.10;;;;;;5011484;28;20287;-58
2022/05/10 04:46:33;;;;;;;6.53;3.17;;;18.60;57.00;;;;;;5012088;28;20214;-58
2022/05/10 04:49:06;;;;;;;4.45;3.30;;;18.60;57.00;;;;;;5011142;28;20228;-59
2022/05/10 04:51:37;;;;;;;4.38;3.22;;;18.60;57.60;;;;;;5012318;28;20250;-59
2022/05/10 04:54:08;;;;;;;4.80;3.58;;;18.60;57.00;;;;;;5011563;28;20200;-58
2022/05/10 04:56:39;;;;;;;4.78;3.80;;;18.60;57.00;;;;;;5009536;28;20314;-58
2022/05/10 04:59:09;;;;;;;5.45;4.20;;;18.60;57.00;;;;;;5009509;28;20279;-58
2022/05/10 05:01:40;;;;;;;10.88;6.15;;;18.60;56.40;;;;;;5011999;28;20280;-58
2022/05/10 05:04:12;;;;;;;10.35;6.78;;;18.60;57.00;;;;;;5010310;28;20197;-59
2022/05/10 05:06:43;;;;;;;9.55;7.00;;;18.60;56.90;;;;;;5008102;28;20614;-60
2022/05/10 05:09:14;;;;;;;9.20;6.43;;;18.50;56.90;;;;;;5009738;28;20217;-59
2022/05/10 05:11:45;;;;;;;9.05;6.82;;;18.60;56.90;;;;;;5009989;28;20668;-59
2022/05/10 05:14:15;;;;;;;8.35;6.13;;;18.60;56.90;;;;;;5009726;28;20233;-58
2022/05/10 05:16:46;;;;;;;9.60;6.80;;;18.50;56.80;;;;;;5009947;28;20265;-58
2022/05/10 05:19:18;;;;;;;8.15;6.65;;;18.50;56.90;;;;;;5010068;28;20283;-58
2022/05/10 05:21:49;;;;;;;8.00;6.43;;;18.50;56.90;;;;;;5009362;28;20233;-59
2022/05/10 05:24:19;;;;;;;10.10;7.20;;;18.50;56.90;;;;;;5010277;28;20204;-59
2022/05/10 05:26:52;;;;;;;9.13;6.05;;;18.50;56.90;;;;;;5010171;28;20189;-58
2022/05/10 05:29:23;;;;;;;7.35;6.60;;;18.50;57.00;;;;;;5009330;28;20213;-58
2022/05/10 05:31:54;;;;;;;7.43;6.35;;;18.50;57.00;;;;;;5010158;28;20197;-58
2022/05/10 05:34:26;;;;;;;10.93;7.13;;;18.50;57.00;;;;;;5010144;28;20212;-59
2022/05/10 05:39:43;;;;;;;8.02;6.35;;;18.50;57.10;;;;;;5010484;28;20378;-58
2022/05/10 05:42:14;;;;;;;7.72;6.20;;;18.50;57.30;;;;;;5009783;28;20259;-58
2022/05/10 05:44:45;;;;;;;7.53;6.50;;;18.50;57.10;;;;;;5007330;28;20228;-59
2022/05/10 05:47:15;;;;;;;7.47;5.82;;;18.40;57.20;;;;;;5009234;28;20201;-58
2022/05/10 05:49:48;;;;;;;7.88;6.03;;;18.50;57.20;;;;;;5009605;28;20854;-58
2022/05/10 05:52:21;;;;;;;7.57;6.07;;;18.40;57.20;;;;;;5009722;28;20224;-58
2022/05/10 05:54:53;;;;;;;7.18;6.13;;;18.40;56.70;;;;;;5009533;28;20239;-58
2022/05/10 05:57:24;;;;;;;8.23;6.47;;;18.40;57.30;;;;;;5009415;28;20290;-58
2022/05/10 06:00:02;;;;;;;6.38;5.68;;;18.40;57.30;;;;;;4995019;28;20222;-58
2022/05/10 06:02:33;;;;;;;7.05;6.30;;;18.40;57.30;;;;;;4994244;28;20538;-58
2022/05/10 06:05:05;;;;;;;7.85;6.30;;;18.40;57.30;;;;;;4994073;28;20201;-58
2022/05/10 06:07:36;;;;;;;7.32;5.97;;;18.40;57.40;;;;;;4994261;28;20299;-58
2022/05/10 06:10:08;;;;;;;9.80;6.03;;;18.40;57.40;;;;;;4994202;28;20217;-58
2022/05/10 06:12:40;;;;;;;8.65;6.10;;;18.40;57.40;;;;;;4993903;28;20248;-58
2022/05/10 06:15:13;;;;;;;8.23;6.30;;;18.30;57.30;;;;;;4993620;28;20220;-58
2022/05/10 06:17:45;;;;;;;7.30;6.07;;;18.40;57.40;;;;;;4993844;28;20276;-58
2022/05/10 06:20:19;;;;;;;6.43;5.68;;;18.40;57.40;;;;;;4993440;28;20268;-58
2022/05/10 06:22:49;;;;;;;8.05;6.43;;;18.30;57.40;;;;;;4992741;28;20557;-58
2022/05/10 06:25:23;;;;;;;7.80;6.25;;;18.30;57.40;;;;;;4993108;28;20206;-58
2022/05/10 06:27:55;;;;;;;6.45;5.38;;;18.30;57.40;;;;;;4993036;28;20201;-58
2022/05/10 06:30:26;;;;;;;7.63;6.30;;;18.30;57.40;;;;;;4993012;28;20217;-58
2022/05/10 06:33:00;;;;;;;6.05;5.45;;;18.30;57.40;;;;;;4993347;28;20193;-58
2022/05/10 06:35:32;;;;;;;7.43;6.28;;;18.30;57.50;;;;;;4993724;28;20288;-58
2022/05/10 06:38:19;;;;;;;6.50;5.68;;;18.30;57.50;;;;;;4993590;28;20280;-58
2022/05/10 06:40:50;;;;;;;9.48;6.57;;;18.30;57.50;;;;;;4993535;28;20317;-58
2022/05/10 06:43:21;;;;;;;7.72;6.22;;;18.30;57.50;;;;;;4993216;28;20201;-58
2022/05/10 06:45:53;;;;;;;7.22;6.32;;;18.30;57.50;;;;;;4992868;28;20197;-58
2022/05/10 06:48:24;;;;;;;6.70;6.00;;;18.20;57.50;;;;;;4996158;28;20642;-58
2022/05/10 06:50:57;;;;;;;7.05;6.30;;;18.20;57.50;;;;;;4993196;28;20237;-58
2022/05/10 06:53:28;;;;;;;6.40;5.72;;;18.20;57.50;;;;;;4993371;28;20198;-58
2022/05/10 06:55:59;;;;;;;7.28;5.97;;;18.20;57.50;;;;;;4992340;28;20310;-58
2022/05/10 06:58:30;;;;;;;7.45;5.95;;;18.20;57.60;;;;;;4992372;28;20225;-58
2022/05/10 07:01:00;;;;;;;7.28;6.03;;;18.20;57.60;;;;;;4992649;28;20248;-57
2022/05/10 07:03:32;;;;;;;33.22;16.15;;;18.20;57.50;;;;;;4992570;28;20263;-57
2022/05/10 07:06:06;;;;;;;45.47;23.05;;;18.20;57.60;;;;;;4991743;28;20193;-57
2022/05/10 07:08:37;;;;;;;23.50;13.85;;;18.20;57.80;;;;;;4992034;28;20249;-57
2022/05/10 07:11:08;;;;;;;22.27;11.57;;;18.20;57.80;;;;;;4992147;28;20201;-58
2022/05/10 07:13:39;;;;;;;21.08;11.73;;;18.20;57.80;;;;;;4992184;28;20193;-58
2022/05/10 07:16:09;;;;;;;18.00;12.13;;;18.20;57.80;;;;;;4992368;28;20205;-57
2022/05/10 07:18:40;;;;;;;24.17;12.15;;;18.20;57.70;;;;;;4992413;28;20217;-57
2022/05/10 07:21:12;;;;;;;21.80;11.82;;;18.20;57.70;;;;;;4992822;28;20771;-57
2022/05/10 07:23:43;;;;;;;17.60;11.48;;;18.20;57.80;;;;;;4992891;28;20779;-58
2022/05/10 07:26:13;;;;;;;20.23;12.20;;;18.20;57.80;;;;;;4992379;28;20201;-58
2022/05/10 07:28:44;;;;;;;17.83;11.13;;;18.10;57.80;;;;;;4992459;28;20250;-57
2022/05/10 07:31:14;;;;;;;20.98;12.13;;;18.10;57.80;;;;;;4991556;28;20260;-57
2022/05/10 07:33:45;;;;;;;19.88;11.23;;;18.10;58.40;;;;;;4992398;28;20280;-57
2022/05/10 07:36:33;;;;;;;21.23;11.85;;;18.10;57.80;;;;;;4992135;28;20205;-57
2022/05/10 07:39:05;;;;;;;18.25;10.40;;;18.10;57.80;;;;;;4972422;28;20219;-57
2022/05/10 07:41:36;;;;;;;23.90;11.88;;;18.10;57.80;;;;;;4972706;28;20624;-58
2022/05/10 07:44:06;;;;;;;20.13;11.13;;;18.10;57.80;;;;;;4973776;28;20198;-57
2022/05/10 07:46:37;;;;;;;17.30;11.15;;;18.10;57.80;;;;;;4992367;28;20634;-57
2022/05/10 07:49:08;;;;;;;19.98;10.85;;;18.10;57.80;;;;;;4992393;28;20221;-58
2022/05/10 07:51:44;;;;;;;18.55;11.05;;;18.10;57.80;;;;;;4992214;28;20197;-58
2022/05/10 07:54:14;;;;;;;19.40;10.68;;;18.10;57.80;;;;;;4992107;28;20201;-57
2022/05/10 07:56:45;;;;;;;18.23;10.20;;;18.10;57.80;;;;;;4991931;28;20257;-57
2022/05/10 07:59:16;;;;;;;18.17;10.40;;;18.10;57.80;;;;;;4991648;28;20217;-57
2022/05/10 08:01:47;;;;;;;16.80;10.27;;;18.00;57.80;;;;;;4992268;28;20198;-57
2022/05/10 08:04:17;;;;;;;14.60;10.15;;;18.00;57.90;;;;;;4991650;28;20197;-57
2022/05/10 08:06:50;;;;;;;18.27;10.23;;;18.00;57.80;;;;;;4991156;28;20259;-57
2022/05/10 08:09:21;;;;;;;16.40;9.48;;;18.00;57.80;;;;;;4992136;28;20693;-57
2022/05/10 08:11:51;;;;;;;19.15;10.13;;;18.00;57.80;;;;;;4991891;28;20198;-57
2022/05/10 08:14:22;;;;;;;15.18;10.02;;;18.00;57.90;;;;;;4991531;28;20247;-57
2022/05/10 08:16:53;;;;;;;17.45;10.48;;;18.00;57.90;;;;;;4991825;28;20256;-57
2022/05/10 08:19:23;;;;;;;19.55;10.48;;;18.00;57.90;;;;;;4992201;28;20275;-58
2022/05/10 08:21:58;;;;;;;15.68;10.07;;;18.00;57.90;;;;;;4991976;28;20611;-57
2022/05/10 08:24:29;;;;;;;20.35;9.60;;;18.00;57.90;;;;;;4991528;28;20220;-57
2022/05/10 08:27:00;;;;;;;16.02;10.70;;;18.00;57.90;;;;;;4972074;28;20209;-57
2022/05/10 08:29:30;;;;;;;15.43;10.38;;;18.00;57.90;;;;;;4974301;28;20586;-57
2022/05/10 08:32:02;;;;;;;14.35;9.85;;;17.90;57.90;;;;;;4991777;28;20221;-57
2022/05/10 08:34:34;;;;;;;15.82;9.73;;;17.90;57.90;;;;;;4991031;28;20311;-57
2022/05/10 08:37:08;;;;;;;15.02;9.82;;;17.90;57.90;;;;;;4991142;28;20221;-57
2022/05/10 08:39:39;;;;;;;16.63;9.82;;;17.90;57.90;;;;;;4991920;28;20218;-57
2022/05/10 08:42:22;;;;;;;13.55;9.80;;;17.90;57.90;;;;;;4991353;28;20193;-57
2022/05/10 08:44:56;;;;;;;17.98;9.57;;;17.90;57.90;;;;;;4990560;28;20202;-57
2022/05/10 08:47:28;;;;;;;13.90;10.18;;;17.90;57.90;;;;;;4991308;28;20201;-58
2022/05/10 08:50:02;;;;;;;17.55;10.00;;;17.90;58.10;;;;;;4993656;28;20252;-58
2022/05/10 08:52:36;;;;;;;15.88;9.85;;;17.90;58.30;;;;;;4986019;28;20233;-57
2022/05/10 08:55:08;;;;;;;14.73;9.20;;;17.90;58.30;;;;;;5005608;28;20958;-58
2022/05/10 08:57:50;;;;;;;14.95;9.18;;;17.90;58.30;;;;;;5008377;28;20228;-57
2022/05/10 09:00:29;;;;;;;12.68;9.10;;;17.90;58.30;;;;;;5007321;28;20660;-58
2022/05/10 09:03:00;;;;;;;11.73;8.52;;;17.80;58.20;;;;;;5007336;28;20202;-57
2022/05/10 09:05:39;;;;;;;17.23;9.88;;;17.80;58.20;;;;;;5005039;28;20197;-58
2022/05/10 09:08:20;;;;;;;14.88;9.25;;;17.80;58.20;;;;;;5007574;28;20220;-56
2022/05/10 09:10:54;;;;;;;15.30;9.13;;;17.80;58.20;;;;;;5006337;28;20264;-57
2022/05/10 09:13:25;;;;;;;14.82;9.13;;;17.80;58.20;;;;;;5007682;28;20612;-58
2022/05/10 09:16:03;;;;;;;12.40;8.40;;;17.80;58.20;;;;;;5007255;28;20201;-57
2022/05/10 09:18:39;;;;;;;12.20;8.82;;;17.80;58.20;;;;;;5008084;28;20224;-57
2022/05/10 09:21:16;;;;;;;14.18;9.00;;;17.80;58.20;;;;;;5011505;28;20200;-59
2022/05/10 09:24:11;;;;;;;12.23;8.50;;;17.80;58.20;;;;;;5009561;28;20224;-58
2022/05/10 09:26:43;;;;;;;12.05;8.35;;;17.80;58.20;;;;;;5010817;28;20327;-58
2022/05/10 09:29:19;;;;;;;13.40;8.13;;;17.80;58.20;;;;;;5010078;28;20280;-58
2022/05/10 09:34:48;;;;;;;12.25;8.05;;;17.80;58.20;;;;;;5011046;28;20204;-58
2022/05/10 09:37:25;;;;;;;11.73;7.80;;;17.80;58.20;;;;;;5010311;28;20216;-58
2022/05/10 09:40:10;;;;;;;12.63;7.63;;;17.80;58.20;;;;;;5010721;28;20228;-58
2022/05/10 09:42:42;;;;;;;11.07;7.72;;;17.70;58.20;;;;;;5010876;28;20258;-58
2022/05/10 09:45:16;;;;;;;11.07;7.43;;;17.70;58.20;;;;;;5009802;28;20653;-58
2022/05/10 09:48:00;;;;;;;12.50;7.97;;;17.70;58.20;;;;;;5009914;28;20201;-59
2022/05/10 09:50:33;;;;;;;10.30;7.90;;;17.70;58.20;;;;;;5009026;28;20251;-58
2022/05/10 09:53:17;;;;;;;12.07;7.43;;;17.70;58.20;;;;;;5008901;28;20358;-58
2022/05/10 09:56:00;;;;;;;11.40;7.30;;;17.70;58.20;;;;;;5011205;28;20251;-57
2022/05/10 09:58:33;;;;;;;11.32;7.30;;;17.70;58.20;;;;;;5009610;28;20754;-58
2022/05/10 10:01:05;;;;;;;9.93;7.03;;;17.70;58.20;;;;;;5010996;28;20229;-57
2022/05/10 10:03:37;;;;;;;9.63;7.10;;;17.70;58.20;;;;;;5010382;28;20679;-58
2022/05/10 10:06:18;;;;;;;11.90;7.53;;;17.70;58.30;;;;;;5010471;28;20224;-58
2022/05/10 10:08:50;;;;;;;10.75;7.18;;;17.70;58.20;;;;;;5010793;28;20270;-59
2022/05/10 10:11:32;;;;;;;11.30;7.18;;;17.70;58.20;;;;;;5010347;28;20220;-57
2022/05/10 10:14:06;;;;;;;10.43;6.93;;;17.60;58.20;;;;;;5010172;28;20232;-57
2022/05/10 10:16:39;;;;;;;10.93;6.55;;;17.60;58.20;;;;;;5010505;28;20194;-57
2022/05/10 10:19:13;;;;;;;11.48;6.93;;;17.70;58.30;;;;;;5009646;28;20252;-58
2022/05/10 10:21:49;;;;;;;9.63;6.93;;;17.60;58.20;;;;;;5010534;28;20201;-58
2022/05/10 10:24:25;;;;;;;9.70;6.70;;;17.60;58.20;;;;;;5010446;28;20836;-58
2022/05/10 10:27:03;;;;;;;9.05;6.40;;;17.60;58.20;;;;;;5010561;28;20336;-58
2022/05/10 10:29:38;;;;;;;9.77;6.72;;;17.60;58.20;;;;;;5006728;28;20221;-58
2022/05/10 10:32:11;;;;;;;9.32;6.68;;;17.60;58.30;;;;;;5010194;28;20610;-57
2022/05/10 10:34:47;;;;;;;8.60;6.57;;;17.60;58.30;;;;;;5010181;28;20267;-58
2022/05/10 10:37:24;;;;;;;10.15;6.45;;;17.60;58.20;;;;;;5009801;28;21410;-58
2022/05/10 10:40:06;;;;;;;7.03;6.22;;;17.60;58.20;;;;;;5009674;28;20248;-58
2022/05/10 10:42:48;;;;;;;9.90;6.43;;;17.60;58.20;;;;;;5009019;28;20274;-58
2022/05/10 10:45:20;;;;;;;10.25;6.38;;;17.60;58.20;;;;;;5009850;28;20208;-58
2022/05/10 10:48:09;;;;;;;9.02;5.53;;;17.60;58.30;;;;;;5009625;28;20614;-58
2022/05/10 10:50:40;;;;;;;9.52;5.65;;;17.60;58.30;;;;;;5009327;28;20224;-58
2022/05/10 10:53:12;;;;;;;7.72;5.75;;;17.50;58.20;;;;;;5009588;28;20224;-57
2022/05/10 10:55:58;;;;;;;9.98;6.35;;;17.50;58.20;;;;;;5009971;28;20207;-58
2022/05/10 10:58:38;;;;;;;10.20;6.15;;;17.50;58.20;;;;;;5007881;28;20597;-57
2022/05/10 11:01:30;;;;;;;8.10;6.30;;;17.60;58.30;;;;;;5009501;28;20828;-57
2022/05/10 11:04:10;;;;;;;8.52;6.22;;;17.60;58.30;;;;;;5008296;28;20668;-58
2022/05/10 11:06:47;;;;;;;7.88;5.50;;;17.50;58.20;;;;;;5006214;28;20223;-57
2022/05/10 11:09:35;;;;;;;8.65;5.53;;;17.50;58.20;;;;;;5009103;28;20711;-57
2022/05/10 11:12:17;;;;;;;7.97;5.20;;;17.50;58.20;;;;;;5009109;28;20189;-58
2022/05/10 11:15:16;;;;;;;8.15;5.53;;;17.50;58.20;;;;;;5008966;28;20653;-57
2022/05/10 11:17:59;;;;;;;7.05;5.10;;;17.50;58.30;;;;;;5009317;28;20215;-58
2022/05/10 11:20:42;;;;;;;7.97;5.30;;;17.50;58.20;;;;;;5009379;28;20240;-59
2022/05/10 11:23:16;;;;;;;8.23;5.45;;;17.50;58.20;;;;;;5009024;28;20719;-58
2022/05/10 11:26:12;;;;;;;6.90;4.90;;;17.50;58.30;;;;;;5008357;28;20259;-57
2022/05/10 11:29:02;;;;;;;8.63;5.15;;;17.50;58.30;;;;;;5006801;28;20306;-58
2022/05/10 11:31:41;;;;;;;7.22;5.15;;;17.50;58.30;;;;;;5008196;28;20200;-57
2022/05/10 11:34:34;;;;;;;7.68;5.10;;;17.40;58.20;;;;;;5008341;28;20193;-57
2022/05/10 11:37:06;;;;;;;6.30;4.75;;;17.40;58.20;;;;;;5007664;28;20217;-58
2022/05/10 11:40:00;;;;;;;7.30;4.85;;;17.40;58.20;;;;;;5009124;28;20342;-58
2022/05/10 11:42:34;;;;;;;7.35;5.28;;;17.40;58.20;;;;;;5007999;28;20759;-57
2022/05/10 11:45:34;;;;;;;5.88;4.72;;;17.40;58.20;;;;;;5008455;28;20593;-58
2022/05/10 11:48:31;;;;;;;8.25;5.43;;;17.40;58.20;;;;;;4996282;28;20193;-59
2022/05/10 11:51:44;;;;;;;6.43;4.70;;;17.40;58.20;;;;;;5008980;28;20755;-58
2022/05/10 11:54:41;;;;;;;5.68;4.47;;;17.40;58.20;;;;;;4998430;28;20198;-58
2022/05/10 11:57:15;;;;;;;8.00;4.80;;;17.40;58.20;;;;;;5003648;28;20193;-57
2022/05/10 11:59:46;;;;;;;5.13;4.40;;;17.40;58.20;;;;;;5008129;28;20313;-57
2022/05/10 12:02:45;;;;;;;5.90;4.30;;;17.40;58.30;;;;;;5009127;28;20204;-57
2022/05/10 12:05:32;;;;;;;5.93;4.88;;;17.40;58.30;;;;;;5007283;28;20201;-57
2022/05/10 12:08:04;;;;;;;6.10;4.57;;;17.30;58.20;;;;;;5008391;28;20634;-58
2022/05/10 12:10:42;;;;;;;7.00;4.70;;;17.30;58.20;;;;;;5000518;28;20353;-58
2022/05/10 12:23:01;;;;;;;5.63;4.78;;;17.30;58.20;;;;;;4990504;28;20672;-58
2022/05/10 12:25:59;;;;;;;5.20;4.43;;;17.30;58.20;;;;;;4987455;28;20190;-57
2022/05/10 12:28:43;;;;;;;6.75;4.47;;;17.30;58.20;;;;;;4970471;28;20206;-57
2022/05/10 12:31:57;;;;;;;6.47;4.47;;;17.30;58.30;;;;;;4970674;28;20198;-58
2022/05/10 12:34:52;;;;;;;5.85;4.15;;;17.30;58.30;;;;;;4970666;28;20287;-58
2022/05/10 12:38:00;;;;;;;4.68;4.28;;;17.30;58.30;;;;;;4978425;28;20194;-57
2022/05/10 12:40:54;;;;;;;5.70;4.28;;;17.30;58.30;;;;;;4990425;28;20217;-58
2022/05/10 12:43:58;;;;;;;5.35;4.20;;;17.30;58.30;;;;;;4990185;28;20198;-58
2022/05/10 12:46:45;;;;;;;5.43;4.07;;;17.30;58.30;;;;;;4974948;28;20205;-58
2022/05/10 12:49:32;;;;;;;6.93;4.40;;;17.20;58.30;;;;;;4990167;28;20590;-58
2022/05/10 12:52:20;;;;;;;4.82;4.18;;;17.20;58.30;;;;;;4990441;28;20229;-59
2022/05/10 12:54:57;;;;;;;6.22;4.65;;;17.20;58.30;;;;;;4994948;28;20190;-58
2022/05/10 12:57:35;;;;;;;6.03;3.75;;;17.20;58.30;;;;;;4993334;28;20658;-58
2022/05/10 13:00:11;;;;;;;5.80;4.15;;;17.20;58.30;;;;;;4994097;28;20229;-58
2022/05/10 13:02:45;;;;;;;5.65;3.88;;;17.20;58.30;;;;;;4994460;28;20204;-58
2022/05/10 13:05:22;;;;;;;4.80;3.70;;;17.20;58.30;;;;;;4993224;28;20198;-58
2022/05/10 13:08:19;;;;;;;5.43;4.05;;;17.20;58.30;;;;;;4993781;28;20193;-59
2022/05/10 13:10:52;;;;;;;5.68;3.92;;;17.20;58.30;;;;;;4993317;28;20198;-59
2022/05/10 13:13:28;;;;;;;4.47;3.63;;;17.20;58.30;;;;;;4993132;28;20197;-58
2022/05/10 13:15:59;;;;;;;4.38;3.55;;;17.20;58.30;;;;;;4993408;28;20194;-59
2022/05/10 13:18:30;;;;;;;4.53;3.65;;;17.10;58.20;;;;;;4993271;28;20564;-58
2022/05/10 13:21:02;;;;;;;5.00;3.85;;;17.10;58.20;;;;;;4992947;28;20197;-58
2022/05/10 13:23:34;;;;;;;4.80;3.42;;;17.10;58.20;;;;;;4989242;28;20225;-58
2022/05/10 13:26:13;;;;;;;3.90;3.50;;;17.20;58.30;;;;;;4986644;28;20272;-58
2022/05/10 13:28:54;;;;;;;4.82;3.75;;;17.10;58.20;;;;;;4993095;28;20221;-58
2022/05/10 13:31:27;;;;;;;5.10;4.38;;;17.10;58.20;;;;;;4993406;28;20244;-58
2022/05/10 13:34:13;;;;;;;5.13;3.85;;;17.10;58.20;;;;;;4993037;28;20747;-58
2022/05/10 13:36:48;;;;;;;3.95;3.47;;;17.10;58.20;;;;;;4992890;28;20225;-59
2022/05/10 13:39:24;;;;;;;4.00;3.33;;;17.10;58.20;;;;;;4992394;28;20224;-58
2022/05/10 13:42:00;;;;;;;5.57;3.78;;;17.10;58.20;;;;;;4991985;28;20585;-58
2022/05/10 13:44:31;;;;;;;4.22;3.40;;;17.10;58.20;;;;;;4993179;28;20197;-58
2022/05/10 13:47:03;;;;;;;3.90;3.47;;;17.10;58.20;;;;;;4993204;28;20201;-58